Time;durP1;ratioP1;P1;durP2;ratioP2;P2;SDS_P1;SDS_P2;PMS_P1;PMS_P2;Temp;Humidity;BMP_temperature;BMP_pressure;BME280_temperature;BME280_humidity;BME280_pressure;Samples;Min_cycle;Max_cycle;Signal;HPM_P1;HPM_P2
2023/05/28 00:00:34;;;;;;;8.70;3.03;;;13.70;99.90;;;;;;5068810;28;20051;-58
2023/05/28 00:03:03;;;;;;;9.60;3.38;;;13.60;99.90;;;;;;5061786;28;20052;-58
2023/05/28 00:05:31;;;;;;;8.88;2.95;;;13.60;99.90;;;;;;5050223;28;20361;-57
2023/05/28 00:08:00;;;;;;;10.32;2.90;;;13.60;99.90;;;;;;5056218;28;20051;-58
2023/05/28 00:10:28;;;;;;;;;;;13.60;99.90;;;;;;5067941;28;20393;-59
2023/05/28 00:12:57;;;;;;;7.88;2.92;;;13.60;99.90;;;;;;5064085;28;20190;-58
2023/05/28 00:15:25;;;;;;;7.97;2.97;;;13.60;99.90;;;;;;5064353;28;20526;-57
2023/05/28 00:17:53;;;;;;;9.00;2.92;;;13.50;99.90;;;;;;5060660;28;20187;-57
2023/05/28 00:20:22;;;;;;;8.50;2.63;;;13.50;99.90;;;;;;5060743;28;20510;-57
2023/05/28 00:22:50;;;;;;;12.15;3.55;;;13.50;99.90;;;;;;5058330;28;20048;-58
2023/05/28 00:25:18;;;;;;;9.70;3.50;;;13.40;99.90;;;;;;5068877;28;20059;-58
2023/05/28 00:27:47;;;;;;;9.45;3.10;;;13.40;99.90;;;;;;5058365;28;20052;-58
2023/05/28 00:30:15;;;;;;;4.80;2.40;;;13.40;99.90;;;;;;5067643;28;20039;-57
2023/05/28 00:32:43;;;;;;;8.45;2.88;;;13.40;99.90;;;;;;5059779;28;20062;-58
2023/05/28 00:35:11;;;;;;;8.07;2.90;;;13.40;99.90;;;;;;5066638;28;20048;-58
2023/05/28 00:37:39;;;;;;;9.15;2.65;;;13.40;99.90;;;;;;5066866;28;20655;-57
2023/05/28 00:40:08;;;;;;;9.65;3.00;;;13.40;99.90;;;;;;5061035;28;20037;-58
2023/05/28 00:42:36;;;;;;;7.32;3.05;;;13.40;99.90;;;;;;5052275;28;20630;-58
2023/05/28 00:45:04;;;;;;;11.35;2.83;;;13.40;99.90;;;;;;5065895;28;20041;-58
2023/05/28 00:47:32;;;;;;;7.28;3.08;;;13.40;99.90;;;;;;5050510;28;20037;-57
2023/05/28 00:50:02;;;;;;;7.30;2.90;;;13.30;99.90;;;;;;5063756;28;20040;-58
2023/05/28 00:52:29;;;;;;;12.07;3.92;;;13.30;99.90;;;;;;5057621;28;20496;-59
2023/05/28 00:54:58;;;;;;;7.55;3.10;;;13.30;99.90;;;;;;5063052;28;20047;-59
2023/05/28 00:57:27;;;;;;;8.90;2.97;;;13.30;99.90;;;;;;5057327;28;20399;-57
2023/05/28 00:59:56;;;;;;;10.07;3.25;;;13.30;99.90;;;;;;5059902;28;20662;-59
2023/05/28 01:02:24;;;;;;;14.73;4.57;;;13.20;99.90;;;;;;5053103;28;20048;-58
2023/05/28 01:04:53;;;;;;;9.40;3.22;;;13.20;99.90;;;;;;5059323;28;20049;-59
2023/05/28 01:07:21;;;;;;;10.68;3.05;;;13.10;99.90;;;;;;5063312;28;20049;-58
2023/05/28 01:09:49;;;;;;;9.77;3.35;;;13.10;99.90;;;;;;5063772;28;20040;-58
2023/05/28 01:12:21;;;;;;;14.38;3.53;;;13.00;99.90;;;;;;5056080;28;20502;-58
2023/05/28 01:14:50;;;;;;;9.65;2.60;;;13.00;99.90;;;;;;5057409;28;20652;-58
2023/05/28 01:17:18;;;;;;;8.18;3.53;;;13.00;99.90;;;;;;5066293;28;20048;-59
2023/05/28 01:19:47;;;;;;;7.63;3.53;;;13.00;99.90;;;;;;5060802;28;20040;-59
2023/05/28 01:22:28;;;;;;;8.10;3.53;;;12.90;99.90;;;;;;5065797;28;20303;-58
2023/05/28 01:24:57;;;;;;;10.05;3.42;;;12.90;99.90;;;;;;5064871;28;20052;-57
2023/05/28 01:27:25;;;;;;;5.93;3.10;;;12.90;99.90;;;;;;5049530;28;20040;-59
2023/05/28 01:29:53;;;;;;;8.02;3.67;;;12.90;99.90;;;;;;5061515;28;20404;-59
2023/05/28 01:32:21;;;;;;;10.00;2.92;;;12.80;99.90;;;;;;5052018;28;20484;-59
2023/05/28 01:34:49;;;;;;;9.80;4.00;;;12.80;99.90;;;;;;5065995;28;20391;-58
2023/05/28 01:37:18;;;;;;;12.30;3.30;;;12.80;99.90;;;;;;5070606;28;20044;-58
2023/05/28 01:39:50;;;;;;;8.75;3.28;;;12.70;99.90;;;;;;5061488;28;20033;-58
2023/05/28 01:42:18;;;;;;;8.20;2.83;;;12.70;99.90;;;;;;5059013;28;20065;-58
2023/05/28 01:45:10;;;;;;;7.68;3.35;;;12.70;99.90;;;;;;5060870;28;20419;-58
2023/05/28 01:47:40;;;;;;;8.38;3.17;;;13.40;99.90;;;;;;5073758;28;20489;-56
2023/05/28 01:50:08;;;;;;;7.13;3.50;;;12.70;99.90;;;;;;5064919;28;20047;-57
2023/05/28 01:52:36;;;;;;;8.25;3.83;;;12.60;99.90;;;;;;5068369;28;20052;-55
2023/05/28 01:55:05;;;;;;;10.85;3.45;;;12.60;99.90;;;;;;5065874;28;20044;-56
2023/05/28 01:57:33;;;;;;;10.57;4.30;;;12.60;99.90;;;;;;5063646;28;20045;-57
2023/05/28 02:00:01;;;;;;;11.45;3.53;;;12.60;99.90;;;;;;5070910;28;20519;-57
2023/05/28 02:02:31;;;;;;;16.55;5.07;;;12.50;99.90;;;;;;5061728;28;20052;-57
2023/05/28 02:05:00;;;;;;;14.20;4.07;;;12.60;99.90;;;;;;5057731;28;20047;-58
2023/05/28 02:07:28;;;;;;;11.77;4.40;;;12.50;99.90;;;;;;5070324;28;20392;-58
2023/05/28 02:09:56;;;;;;;15.38;5.18;;;12.50;99.90;;;;;;5067986;28;20053;-58
2023/05/28 02:12:24;;;;;;;12.00;4.05;;;12.50;99.90;;;;;;5066711;28;20041;-58
2023/05/28 02:14:52;;;;;;;12.10;4.38;;;12.50;99.90;;;;;;5068755;28;20044;-57
2023/05/28 02:17:21;;;;;;;14.02;4.18;;;12.40;99.90;;;;;;5069258;28;20171;-57
2023/05/28 02:19:49;;;;;;;13.50;5.32;;;12.40;99.90;;;;;;5052618;28;20036;-57
2023/05/28 02:22:17;;;;;;;11.00;4.30;;;12.40;99.90;;;;;;5063684;28;20049;-57
2023/05/28 02:24:46;;;;;;;11.35;4.38;;;12.40;99.90;;;;;;5067680;28;20048;-58
2023/05/28 02:27:14;;;;;;;12.73;5.28;;;12.40;99.90;;;;;;5066338;28;20452;-59
2023/05/28 02:29:43;;;;;;;10.65;5.07;;;12.40;99.90;;;;;;5063264;28;20040;-58
2023/05/28 02:32:11;;;;;;;13.20;5.05;;;12.40;99.90;;;;;;5063567;28;20055;-57
2023/05/28 02:34:39;;;;;;;12.55;5.15;;;12.40;99.90;;;;;;5068356;28;20500;-58
2023/05/28 02:37:07;;;;;;;14.73;5.43;;;12.40;99.90;;;;;;5068531;28;20524;-56
2023/05/28 02:39:35;;;;;;;16.65;6.45;;;12.30;99.90;;;;;;5054526;28;20048;-57
2023/05/28 02:42:03;;;;;;;13.00;6.00;;;12.40;99.90;;;;;;5067501;28;20053;-57
2023/05/28 02:44:31;;;;;;;14.18;6.18;;;12.30;99.90;;;;;;5073641;28;20074;-58
2023/05/28 02:46:59;;;;;;;10.23;5.72;;;12.30;99.90;;;;;;5070653;28;20044;-58
2023/05/28 02:49:27;;;;;;;16.73;5.45;;;12.30;99.90;;;;;;5070975;28;20052;-58
2023/05/28 02:51:56;;;;;;;14.07;6.57;;;12.30;99.90;;;;;;5069586;28;20515;-57
2023/05/28 02:54:27;;;;;;;12.15;5.80;;;12.30;99.90;;;;;;5071486;28;20583;-57
2023/05/28 02:56:55;;;;;;;15.77;5.93;;;12.30;99.90;;;;;;5073355;28;20044;-57
2023/05/28 02:59:23;;;;;;;20.00;5.70;;;12.20;99.90;;;;;;5071915;28;20036;-57
2023/05/28 03:01:51;;;;;;;13.32;5.22;;;12.30;99.90;;;;;;5067844;28;20045;-57
2023/05/28 03:04:20;;;;;;;14.40;6.22;;;12.30;99.90;;;;;;5071172;28;20048;-58
2023/05/28 03:06:48;;;;;;;11.02;5.22;;;12.30;99.90;;;;;;5064317;28;20041;-57
2023/05/28 03:09:16;;;;;;;10.18;5.25;;;12.30;99.90;;;;;;5070429;28;20040;-58
2023/05/28 03:11:44;;;;;;;13.20;5.30;;;12.20;99.90;;;;;;5068965;28;20040;-57
2023/05/28 03:14:12;;;;;;;11.48;5.43;;;12.30;99.90;;;;;;5061093;28;20043;-57
2023/05/28 03:16:40;;;;;;;14.00;4.97;;;12.20;99.90;;;;;;5069341;28;20036;-57
2023/05/28 03:19:18;;;;;;;14.02;5.35;;;12.20;99.90;;;;;;5072884;28;20036;-57
2023/05/28 03:21:46;;;;;;;9.88;5.05;;;12.20;99.90;;;;;;5070659;28;20048;-57
2023/05/28 03:24:15;;;;;;;9.32;4.93;;;12.20;99.90;;;;;;5066639;28;20040;-56
2023/05/28 03:26:47;;;;;;;11.10;4.70;;;12.20;99.90;;;;;;5071720;28;20044;-56
2023/05/28 03:29:20;;;;;;;9.05;4.18;;;12.20;99.90;;;;;;5071482;28;20488;-56
2023/05/28 03:32:00;;;;;;;13.10;5.00;;;12.20;99.90;;;;;;5055204;28;20060;-57
2023/05/28 03:34:28;;;;;;;8.77;4.60;;;12.20;99.90;;;;;;5070776;28;20036;-57
2023/05/28 03:36:57;;;;;;;13.57;4.50;;;12.30;99.90;;;;;;5054699;28;20052;-56
2023/05/28 03:39:26;;;;;;;13.45;4.50;;;12.30;99.90;;;;;;5065399;28;20094;-57
2023/05/28 03:41:54;;;;;;;10.82;4.63;;;12.30;99.90;;;;;;5067852;28;20045;-57
2023/05/28 03:44:25;;;;;;;13.07;4.78;;;12.40;99.90;;;;;;5071105;28;20396;-58
2023/05/28 03:46:53;;;;;;;9.48;5.05;;;12.40;99.90;;;;;;5072529;28;20056;-57
2023/05/28 03:49:21;;;;;;;12.88;4.47;;;12.50;99.90;;;;;;5055588;28;20053;-58
2023/05/28 03:51:49;;;;;;;11.63;4.50;;;12.50;99.90;;;;;;5064121;28;20036;-58
2023/05/28 03:54:17;;;;;;;12.00;5.50;;;12.50;99.90;;;;;;5071166;28;20040;-58
2023/05/28 03:56:46;;;;;;;11.45;5.00;;;12.50;99.90;;;;;;5071406;28;20052;-59
2023/05/28 03:59:14;;;;;;;13.32;4.60;;;12.60;99.90;;;;;;5071520;28;20111;-58
2023/05/28 04:01:42;;;;;;;7.03;3.92;;;12.60;99.90;;;;;;5049850;28;20048;-56
2023/05/28 04:04:11;;;;;;;10.50;4.63;;;12.60;99.90;;;;;;5069858;28;20050;-56
2023/05/28 04:06:39;;;;;;;9.30;3.80;;;12.60;99.90;;;;;;5067206;28;20049;-57
2023/05/28 04:09:08;;;;;;;9.48;3.75;;;12.60;99.90;;;;;;5061579;28;20432;-56
2023/05/28 04:11:37;;;;;;;9.00;3.42;;;12.60;99.90;;;;;;5049811;28;20071;-58
2023/05/28 04:14:12;;;;;;;7.55;4.20;;;12.50;99.90;;;;;;5070905;28;20047;-57
2023/05/28 04:16:40;;;;;;;10.27;3.55;;;12.50;99.90;;;;;;5069240;28;20040;-56
2023/05/28 04:19:08;;;;;;;8.70;4.78;;;12.50;99.90;;;;;;5057696;28;20048;-56
2023/05/28 04:21:36;;;;;;;9.00;4.07;;;12.40;99.90;;;;;;5062513;28;20037;-57
2023/05/28 04:24:04;;;;;;;6.07;3.33;;;12.40;99.90;;;;;;5056691;28;20052;-57
2023/05/28 04:26:33;;;;;;;9.77;3.63;;;12.40;99.90;;;;;;5056224;28;20103;-58
2023/05/28 04:29:01;;;;;;;10.98;3.50;;;12.40;99.90;;;;;;5070470;28;20063;-57
2023/05/28 04:31:31;;;;;;;10.70;4.60;;;12.30;99.90;;;;;;5066749;28;20047;-56
2023/05/28 04:34:00;;;;;;;7.35;4.00;;;12.30;99.90;;;;;;5061421;28;20063;-57
2023/05/28 04:36:32;;;;;;;10.18;4.15;;;12.30;99.90;;;;;;5070120;28;20044;-57
2023/05/28 04:39:01;;;;;;;8.57;3.50;;;12.20;99.90;;;;;;5059794;28;20048;-56
2023/05/28 04:41:30;;;;;;;12.38;4.32;;;12.20;99.90;;;;;;5067532;28;20521;-56
2023/05/28 04:43:58;;;;;;;10.68;4.03;;;12.20;99.90;;;;;;5071094;28;20048;-57
2023/05/28 04:46:29;;;;;;;10.55;4.15;;;12.20;99.90;;;;;;5070662;28;20047;-57
2023/05/28 04:48:58;;;;;;;12.48;3.90;;;12.20;99.90;;;;;;5056459;28;20200;-57
2023/05/28 04:51:27;;;;;;;9.45;4.00;;;12.10;99.90;;;;;;5055965;28;20040;-57
2023/05/28 04:53:55;;;;;;;7.15;3.72;;;12.20;99.90;;;;;;5061430;28;20476;-57
2023/05/28 04:56:23;;;;;;;6.93;3.60;;;12.20;99.90;;;;;;5061440;28;20041;-57
2023/05/28 04:58:51;;;;;;;12.68;4.63;;;12.20;99.90;;;;;;5075774;28;20036;-58
2023/05/28 05:01:22;;;;;;;10.20;4.53;;;12.20;99.90;;;;;;5064780;28;20044;-58
2023/05/28 05:03:50;;;;;;;6.72;3.75;;;12.30;99.90;;;;;;5055384;28;20049;-58
2023/05/28 05:06:18;;;;;;;7.75;3.67;;;12.30;99.90;;;;;;5056727;28;20502;-57
2023/05/28 05:08:47;;;;;;;9.88;3.70;;;12.30;99.90;;;;;;5061462;28;20037;-59
2023/05/28 05:11:16;;;;;;;12.93;4.47;;;12.40;99.90;;;;;;5059088;28;20049;-58
2023/05/28 05:13:43;;;;;;;9.10;4.00;;;12.40;99.90;;;;;;5068035;28;20037;-57
2023/05/28 05:16:12;;;;;;;7.82;4.35;;;12.50;99.90;;;;;;5065718;28;20063;-58
2023/05/28 05:18:40;;;;;;;7.38;3.75;;;12.50;99.90;;;;;;5072682;28;20043;-58
2023/05/28 05:21:10;;;;;;;9.95;3.58;;;12.60;99.90;;;;;;5057486;28;20037;-58
2023/05/28 05:23:38;;;;;;;14.38;4.25;;;12.60;99.90;;;;;;5062554;28;20067;-58
2023/05/28 05:26:16;;;;;;;11.43;5.53;;;12.60;99.90;;;;;;5060753;28;20048;-58
2023/05/28 05:28:45;;;;;;;7.68;4.35;;;12.60;99.90;;;;;;5052203;28;20626;-57
2023/05/28 05:31:14;;;;;;;7.87;4.70;;;12.60;99.90;;;;;;5045282;28;20063;-59
2023/05/28 05:33:42;;;;;;;9.45;4.25;;;12.60;99.90;;;;;;5080642;28;20040;-57
2023/05/28 05:36:42;;;;;;;11.95;5.35;;;12.70;99.90;;;;;;5064824;28;20044;-58
2023/05/28 05:39:42;;;;;;;7.93;4.28;;;12.70;99.90;;;;;;5053458;28;20059;-58
2023/05/28 05:42:24;;;;;;;10.13;4.65;;;12.80;99.90;;;;;;5041622;28;20377;-58
2023/05/28 05:44:54;;;;;;;;;;;12.80;99.90;;;;;;5065913;28;20404;-59
2023/05/28 05:47:25;;;;;;;9.73;4.80;;;12.90;99.90;;;;;;5054318;28;19954;-58
2023/05/28 05:49:55;;;;;;;13.20;4.95;;;12.90;99.90;;;;;;5051617;28;20503;-61
2023/05/28 05:52:24;;;;;;;12.70;4.53;;;13.00;99.90;;;;;;5052576;28;20041;-59
2023/05/28 05:54:54;;;;;;;7.75;4.70;;;13.10;99.90;;;;;;5062598;28;20478;-57
2023/05/28 05:57:23;;;;;;;10.98;5.22;;;;;;;;;;5055892;28;20040;-58
2023/05/28 05:59:54;;;;;;;10.63;5.28;;;13.20;99.90;;;;;;5062161;28;20504;-59
2023/05/28 06:02:24;;;;;;;10.88;5.15;;;13.30;99.90;;;;;;5061191;28;20620;-58
2023/05/28 06:04:52;;;;;;;11.27;5.63;;;13.30;99.90;;;;;;5059837;28;20044;-59
2023/05/28 06:07:38;;;;;;;14.10;5.72;;;13.40;99.90;;;;;;5059038;28;20060;-59
2023/05/28 06:10:29;;;;;;;17.92;6.20;;;13.50;99.90;;;;;;5063027;28;20550;-58
2023/05/28 06:13:01;;;;;;;9.48;5.43;;;13.60;99.90;;;;;;5066255;28;20036;-58
2023/05/28 06:15:29;;;;;;;18.60;6.65;;;13.60;99.90;;;;;;5067341;28;20036;-58
2023/05/28 06:17:58;;;;;;;14.63;6.63;;;13.60;99.90;;;;;;5070221;28;20427;-58
2023/05/28 06:20:27;;;;;;;13.50;6.47;;;13.70;99.90;;;;;;5074701;28;20036;-57
2023/05/28 06:22:55;;;;;;;15.05;6.50;;;13.70;99.90;;;;;;5068209;28;20045;-58
2023/05/28 06:25:23;;;;;;;16.75;7.30;;;13.80;99.90;;;;;;5065758;28;20044;-58
2023/05/28 06:27:52;;;;;;;12.93;5.95;;;13.90;99.90;;;;;;5058450;28;20045;-58
2023/05/28 06:30:20;;;;;;;12.52;5.65;;;13.90;99.90;;;;;;5064437;28;20045;-59
2023/05/28 06:32:48;;;;;;;12.50;5.90;;;14.00;99.90;;;;;;5063986;28;20041;-59
2023/05/28 06:35:16;;;;;;;14.77;6.00;;;14.10;99.90;;;;;;5065068;28;20056;-59
2023/05/28 06:37:45;;;;;;;12.60;5.97;;;14.20;99.90;;;;;;5071631;28;20214;-59
2023/05/28 06:40:16;;;;;;;11.40;6.43;;;14.30;99.90;;;;;;5066202;28;20644;-58
2023/05/28 06:42:44;;;;;;;11.05;7.13;;;14.40;99.90;;;;;;5062829;28;20048;-59
2023/05/28 06:45:20;;;;;;;11.05;6.00;;;14.50;99.90;;;;;;5058755;28;20052;-59
2023/05/28 06:47:51;;;;;;;13.50;6.10;;;14.50;99.90;;;;;;5066906;28;20420;-59
2023/05/28 06:50:20;;;;;;;9.60;5.40;;;14.60;99.90;;;;;;5068419;28;20414;-59
2023/05/28 06:52:51;;;;;;;16.92;5.40;;;14.80;99.90;;;;;;5064003;28;20052;-58
2023/05/28 06:55:20;;;;;;;10.27;6.45;;;14.90;99.90;;;;;;5061775;28;20044;-59
2023/05/28 06:58:11;;;;;;;12.48;5.75;;;15.00;99.90;;;;;;5070414;28;20410;-58
2023/05/28 07:01:11;;;;;;;10.00;5.80;;;15.10;99.90;;;;;;5051556;28;20061;-59
2023/05/28 07:03:57;;;;;;;12.20;5.22;;;15.20;99.90;;;;;;5063064;28;20601;-57
2023/05/28 07:06:33;;;;;;;12.25;5.10;;;15.10;99.90;;;;;;5060966;28;20041;-58
2023/05/28 07:09:02;;;;;;;12.02;5.68;;;15.20;99.90;;;;;;5061395;28;20071;-58
2023/05/28 07:11:30;;;;;;;11.88;6.43;;;15.10;99.90;;;;;;5066734;28;20045;-58
2023/05/28 07:13:57;;;;;;;11.55;5.82;;;15.10;99.90;;;;;;5083180;28;20055;-57
2023/05/28 07:16:26;;;;;;;13.48;4.97;;;14.20;99.90;;;;;;5069593;28;20045;-59
2023/05/28 07:18:54;;;;;;;8.45;4.53;;;15.00;99.90;;;;;;5072997;28;20480;-59
2023/05/28 07:21:23;;;;;;;10.43;5.70;;;14.90;99.90;;;;;;5058752;28;20052;-58
2023/05/28 07:23:51;;;;;;;9.80;5.43;;;14.90;99.90;;;;;;5064465;28;20403;-58
2023/05/28 07:26:20;;;;;;;8.95;5.80;;;;;;;;;;5065441;28;20774;-58
2023/05/28 07:28:48;;;;;;;10.20;5.88;;;14.90;99.90;;;;;;5075266;28;20761;-59
2023/05/28 07:31:16;;;;;;;11.13;5.53;;;14.90;99.90;;;;;;5062940;28;20091;-59
2023/05/28 07:33:45;;;;;;;8.25;4.82;;;14.90;99.90;;;;;;5047879;28;20055;-59
2023/05/28 07:36:15;;;;;;;;;;;15.00;99.90;;;;;;5065264;28;20052;-59
2023/05/28 07:38:43;;;;;;;9.40;4.63;;;15.10;99.90;;;;;;5064637;28;19928;-57
2023/05/28 07:41:10;;;;;;;9.05;5.65;;;15.10;99.90;;;;;;5055366;28;20041;-59
2023/05/28 07:43:45;;;;;;;12.18;5.22;;;15.20;99.90;;;;;;5046569;28;20052;-58
2023/05/28 07:46:21;;;;;;;6.95;4.80;;;15.20;99.90;;;;;;5057405;28;20045;-60
2023/05/28 07:48:55;;;;;;;9.10;4.85;;;15.30;99.90;;;;;;5078920;28;20047;-60
2023/05/28 07:51:26;;;;;;;10.70;4.68;;;15.30;99.90;;;;;;5077451;28;20507;-58
2023/05/28 07:54:17;;;;;;;7.13;5.03;;;15.40;99.90;;;;;;5067869;28;20365;-59
2023/05/28 07:56:48;;;;;;;9.27;4.57;;;;;;;;;;5068546;28;20044;-59
2023/05/28 07:59:39;;;;;;;6.47;4.55;;;15.50;99.90;;;;;;5055662;28;20060;-59
2023/05/28 08:02:10;;;;;;;9.07;4.57;;;15.50;99.90;;;;;;5083160;28;20041;-59
2023/05/28 08:04:38;;;;;;;8.88;4.70;;;15.50;99.90;;;;;;5069014;28;20175;-57
2023/05/28 08:07:06;;;;;;;8.63;4.63;;;15.70;99.90;;;;;;5051300;28;20052;-58
2023/05/28 08:09:34;;;;;;;8.23;4.40;;;15.70;99.90;;;;;;5079750;28;20036;-59
2023/05/28 08:12:03;;;;;;;10.52;4.15;;;15.80;99.90;;;;;;5067786;28;20053;-59
2023/05/28 08:14:33;;;;;;;10.25;4.55;;;15.80;99.90;;;;;;5079355;28;20036;-60
2023/05/28 08:17:07;;;;;;;9.52;4.45;;;;;;;;;;5052270;28;23597;-59
2023/05/28 08:19:58;;;;;;;8.10;4.28;;;16.00;99.90;;;;;;5058382;28;20052;-57
2023/05/28 08:22:40;;;;;;;8.75;4.28;;;16.10;99.90;;;;;;5073323;28;20050;-58
2023/05/28 08:25:09;;;;;;;;;;;16.20;99.90;;;;;;5062670;28;20417;-59
2023/05/28 08:27:38;;;;;;;8.07;3.75;;;16.30;99.90;;;;;;5048054;28;19921;-59
2023/05/28 08:30:06;;;;;;;9.82;4.10;;;16.40;99.90;;;;;;5054263;28;20040;-59
2023/05/28 08:32:42;;;;;;;9.75;4.50;;;16.50;99.90;;;;;;5083664;28;20036;-59
2023/05/28 08:35:11;;;;;;;12.05;4.63;;;16.50;99.90;;;;;;5065873;28;20037;-59
2023/05/28 08:37:39;;;;;;;6.63;4.55;;;16.70;99.90;;;;;;5068870;28;20059;-58
2023/05/28 08:40:39;;;;;;;7.95;4.63;;;16.70;99.90;;;;;;5066119;28;20044;-59
2023/05/28 08:43:08;;;;;;;7.70;4.30;;;16.90;99.90;;;;;;5074160;28;20394;-59
2023/05/28 08:45:37;;;;;;;9.05;4.60;;;16.90;99.90;;;;;;5067470;28;20043;-59
2023/05/28 08:48:07;;;;;;;6.10;3.20;;;17.00;99.90;;;;;;5072712;28;20036;-59
2023/05/28 08:50:45;;;;;;;6.47;4.22;;;17.00;99.90;;;;;;5059848;28;20045;-58
2023/05/28 08:53:21;;;;;;;9.45;4.53;;;17.10;99.90;;;;;;5047557;28;20522;-59
2023/05/28 08:55:49;;;;;;;5.68;3.90;;;17.10;99.90;;;;;;5066744;28;20045;-59
2023/05/28 08:58:21;;;;;;;6.68;4.13;;;17.30;99.90;;;;;;5067715;28;20051;-59
2023/05/28 09:00:51;;;;;;;6.00;3.88;;;17.30;99.90;;;;;;5080720;28;20040;-58
2023/05/28 09:03:39;;;;;;;8.25;4.18;;;17.40;99.90;;;;;;5070154;28;20037;-57
2023/05/28 09:06:19;;;;;;;8.43;4.20;;;17.60;99.90;;;;;;5066597;28;20459;-59
2023/05/28 09:08:47;;;;;;;7.88;3.90;;;17.70;99.90;;;;;;5081352;28;20041;-60
2023/05/28 09:11:30;;;;;;;6.80;3.72;;;17.90;99.90;;;;;;5039392;28;20044;-58
2023/05/28 09:14:07;;;;;;;9.65;3.95;;;18.20;99.90;;;;;;5076533;28;20036;-58
2023/05/28 09:16:36;;;;;;;7.07;3.70;;;18.20;99.90;;;;;;5065274;28;20048;-60
2023/05/28 09:19:08;;;;;;;4.88;3.55;;;18.30;99.90;;;;;;5043845;28;20055;-59
2023/05/28 09:21:39;;;;;;;9.23;4.25;;;18.30;99.90;;;;;;5066594;28;20115;-59
2023/05/28 09:24:13;;;;;;;7.82;3.65;;;18.30;99.90;;;;;;5085505;28;20060;-59
2023/05/28 09:27:17;;;;;;;3.95;2.85;;;18.40;99.90;;;;;;5066310;28;20044;-59
2023/05/28 09:29:46;;;;;;;5.13;3.22;;;18.50;99.90;;;;;;5056817;28;20036;-59
2023/05/28 09:32:20;;;;;;;6.10;3.63;;;18.80;99.90;;;;;;5064743;28;20656;-59
2023/05/28 09:34:52;;;;;;;6.05;3.28;;;18.80;99.90;;;;;;5067041;28;20044;-59
2023/05/28 09:37:20;;;;;;;8.68;4.03;;;19.00;99.90;;;;;;5064649;28;20045;-59
2023/05/28 09:40:03;;;;;;;6.13;3.35;;;19.20;99.90;;;;;;5054714;28;20044;-59
2023/05/28 09:42:38;;;;;;;8.23;3.60;;;19.40;99.90;;;;;;5067701;28;20048;-59
2023/05/28 09:45:07;;;;;;;5.55;3.42;;;19.50;99.90;;;;;;5067856;28;20052;-59
2023/05/28 09:47:43;;;;;;;7.47;3.40;;;19.40;99.90;;;;;;5064101;28;20037;-59
2023/05/28 09:50:11;;;;;;;5.55;3.35;;;19.40;99.90;;;;;;5064753;28;20052;-59
2023/05/28 09:52:43;;;;;;;6.70;3.28;;;19.40;99.90;;;;;;5062718;28;20055;-59
2023/05/28 09:55:20;;;;;;;5.60;3.40;;;19.40;99.90;;;;;;5058055;28;20052;-60
2023/05/28 09:58:02;;;;;;;9.48;4.45;;;19.40;99.90;;;;;;5061938;28;20044;-60
2023/05/28 10:00:33;;;;;;;5.63;4.05;;;19.40;99.90;;;;;;5067444;28;20040;-59
2023/05/28 10:03:12;;;;;;;5.45;3.58;;;19.40;99.90;;;;;;5060622;28;20045;-60
2023/05/28 10:05:44;;;;;;;7.15;3.80;;;19.50;99.90;;;;;;5062989;28;20036;-59
2023/05/28 10:08:15;;;;;;;7.03;4.38;;;19.50;99.90;;;;;;5062480;28;20626;-60
2023/05/28 10:10:47;;;;;;;6.18;4.20;;;19.50;99.90;;;;;;5067980;28;20037;-59
2023/05/28 10:13:16;;;;;;;7.57;3.70;;;19.50;99.90;;;;;;5061597;28;20056;-59
2023/05/28 10:15:45;;;;;;;8.07;3.88;;;19.40;99.90;;;;;;5050852;28;20045;-60
2023/05/28 10:18:14;;;;;;;7.80;4.77;;;19.40;99.90;;;;;;5062062;28;20189;-58
2023/05/28 10:20:42;;;;;;;10.27;3.97;;;19.30;99.90;;;;;;5054573;28;20503;-58
2023/05/28 10:23:13;;;;;;;5.03;4.28;;;19.30;99.90;;;;;;5060926;28;20052;-59
2023/05/28 10:25:41;;;;;;;6.90;3.67;;;19.30;99.90;;;;;;5057087;28;20377;-57
2023/05/28 10:28:14;;;;;;;6.80;3.72;;;19.30;99.90;;;;;;5064326;28;20245;-59
2023/05/28 10:30:42;;;;;;;6.65;3.60;;;19.20;99.90;;;;;;5055087;28;20038;-59
2023/05/28 10:33:15;;;;;;;7.38;3.42;;;19.20;99.90;;;;;;5065260;28;20389;-59
2023/05/28 10:35:53;;;;;;;6.43;3.70;;;19.20;99.90;;;;;;5046546;28;20508;-58
2023/05/28 10:38:22;;;;;;;7.75;3.28;;;19.30;99.90;;;;;;5058043;28;20059;-59
2023/05/28 10:40:51;;;;;;;6.53;3.08;;;19.30;99.90;;;;;;5053243;28;20399;-59
2023/05/28 10:43:37;;;;;;;7.05;3.55;;;19.50;99.90;;;;;;5054903;28;20431;-58
2023/05/28 10:46:23;;;;;;;7.63;3.20;;;20.30;99.90;;;;;;5052244;28;20043;-59
2023/05/28 10:49:13;;;;;;;5.30;2.78;;;20.40;99.90;;;;;;5052123;28;20036;-59
2023/05/28 10:51:46;;;;;;;;;;;20.70;99.90;;;;;;5063378;28;20052;-59
2023/05/28 10:54:15;;;;;;;6.07;3.50;;;20.90;99.90;;;;;;5061398;28;19921;-59
2023/05/28 10:57:08;;;;;;;5.15;3.15;;;21.00;99.90;;;;;;5046680;28;20512;-59
2023/05/28 10:59:43;;;;;;;5.70;3.40;;;21.20;99.90;;;;;;5064343;28;20042;-59
2023/05/28 11:02:15;;;;;;;4.93;2.97;;;21.10;99.90;;;;;;5059751;28;20059;-58
2023/05/28 11:04:46;;;;;;;5.38;2.85;;;21.10;99.90;;;;;;5052915;28;20048;-59
2023/05/28 11:07:14;;;;;;;4.03;2.67;;;21.00;99.90;;;;;;5063111;28;20037;-59
2023/05/28 11:09:46;;;;;;;4.53;2.38;;;21.00;99.90;;;;;;5066211;28;20044;-58
2023/05/28 11:12:14;;;;;;;5.10;2.83;;;21.20;99.90;;;;;;5064034;28;20223;-59
2023/05/28 11:14:42;;;;;;;3.90;2.67;;;21.80;99.90;;;;;;5067552;28;20037;-59
2023/05/28 11:17:11;;;;;;;3.60;2.40;;;21.80;99.90;;;;;;5062523;28;20052;-60
2023/05/28 11:19:44;;;;;;;7.53;2.27;;;22.00;99.90;;;;;;5053843;28;20049;-59
2023/05/28 11:22:13;;;;;;;6.00;2.60;;;21.90;99.90;;;;;;5025641;28;20049;-61
2023/05/28 11:25:05;;;;;;;5.85;2.70;;;22.00;99.90;;;;;;5055559;28;20049;-59
2023/05/28 11:27:35;;;;;;;2.97;2.10;;;22.20;99.90;;;;;;5066639;28;20051;-59
2023/05/28 11:30:08;;;;;;;5.50;2.10;;;22.40;99.90;;;;;;5057105;28;20055;-59
2023/05/28 11:32:37;;;;;;;4.25;2.13;;;22.80;99.90;;;;;;5062715;28;20048;-58
2023/05/28 11:35:05;;;;;;;5.00;2.05;;;22.80;99.90;;;;;;5066490;28;20056;-59
2023/05/28 11:37:36;;;;;;;3.77;1.90;;;23.00;99.90;;;;;;5066679;28;20049;-60
2023/05/28 11:40:09;;;;;;;5.07;2.20;;;23.20;99.40;;;;;;5062672;28;20301;-58
2023/05/28 11:42:40;;;;;;;6.65;1.98;;;23.40;99.20;;;;;;5066128;28;20044;-59
2023/05/28 11:45:09;;;;;;;4.38;1.80;;;23.60;98.10;;;;;;5064940;28;20882;-59
2023/05/28 11:47:38;;;;;;;3.10;1.80;;;23.70;97.80;;;;;;5062300;28;20048;-59
2023/05/28 11:50:13;;;;;;;3.13;1.90;;;23.60;97.20;;;;;;5062446;28;20048;-59
2023/05/28 11:52:41;;;;;;;5.78;1.90;;;23.40;96.40;;;;;;5064942;28;20044;-59
2023/05/28 11:55:10;;;;;;;5.53;2.55;;;23.20;96.80;;;;;;5071460;28;20504;-59
2023/05/28 11:57:39;;;;;;;4.70;2.08;;;22.80;96.40;;;;;;5056065;28;20048;-60
2023/05/28 12:00:20;;;;;;;3.33;1.83;;;22.60;96.80;;;;;;5057060;28;20551;-59
2023/05/28 12:02:50;;;;;;;4.32;1.92;;;22.50;97.10;;;;;;5059153;28;20044;-58
2023/05/28 12:05:19;;;;;;;5.68;2.15;;;22.40;97.20;;;;;;5061307;28;20411;-59
2023/05/28 12:07:50;;;;;;;5.10;1.92;;;22.30;97.40;;;;;;5054344;28;20060;-59
2023/05/28 12:10:20;;;;;;;5.88;2.20;;;22.50;98.30;;;;;;5060880;28;20040;-59
2023/05/28 12:12:55;;;;;;;6.38;1.75;;;22.90;97.80;;;;;;5065115;28;20071;-60
2023/05/28 12:15:27;;;;;;;5.07;2.10;;;23.30;96.40;;;;;;5065626;28;20322;-59
2023/05/28 12:18:04;;;;;;;3.38;1.65;;;23.60;94.20;;;;;;5064816;28;20055;-60
2023/05/28 12:20:42;;;;;;;3.55;2.22;;;23.90;94.50;;;;;;5047214;28;20037;-59
2023/05/28 12:23:12;;;;;;;6.68;2.00;;;24.30;92.70;;;;;;5055470;28;21220;-60
2023/05/28 12:25:43;;;;;;;5.78;2.05;;;24.40;91.90;;;;;;5054372;28;20049;-62
2023/05/28 12:28:21;;;;;;;4.68;2.00;;;24.50;91.90;;;;;;5054019;28;20040;-59
2023/05/28 12:30:52;;;;;;;4.25;2.05;;;24.50;91.40;;;;;;5055414;28;20040;-60
2023/05/28 12:33:22;;;;;;;3.83;2.00;;;24.20;91.40;;;;;;5060228;28;20045;-59
2023/05/28 12:35:50;;;;;;;4.07;2.13;;;24.10;91.40;;;;;;5063828;28;20045;-60
2023/05/28 12:38:19;;;;;;;6.20;1.95;;;23.80;92.00;;;;;;5052303;28;20045;-60
2023/05/28 12:40:47;;;;;;;5.38;2.45;;;23.40;92.00;;;;;;5051507;28;20523;-59
2023/05/28 12:43:15;;;;;;;4.07;1.70;;;23.10;92.30;;;;;;5055480;28;20049;-61
2023/05/28 12:45:43;;;;;;;6.03;2.15;;;22.50;93.00;;;;;;5053236;28;20044;-59
2023/05/28 12:48:11;;;;;;;2.97;1.90;;;22.40;93.20;;;;;;5063388;28;20044;-59
2023/05/28 12:50:40;;;;;;;6.57;2.05;;;22.30;93.90;;;;;;5052101;28;20052;-61
2023/05/28 12:53:07;;;;;;;3.10;1.83;;;22.20;94.20;;;;;;5051448;28;20049;-60
2023/05/28 12:55:35;;;;;;;3.65;1.52;;;22.10;94.70;;;;;;5061085;28;20044;-59
2023/05/28 12:58:03;;;;;;;6.90;2.92;;;21.90;95.00;;;;;;5046145;28;20045;-59
2023/05/28 13:00:31;;;;;;;3.67;2.13;;;21.70;95.60;;;;;;5057149;28;20047;-59
2023/05/28 13:03:02;;;;;;;4.55;2.00;;;21.50;96.30;;;;;;5061018;28;20052;-60
2023/05/28 13:05:34;;;;;;;4.63;2.35;;;21.50;96.70;;;;;;5059009;28;20052;-58